Time;durP1;ratioP1;P1;durP2;ratioP2;P2;SDS_P1;SDS_P2;PMS_P1;PMS_P2;Temp;Humidity;BMP_temperature;BMP_pressure;BME280_temperature;BME280_humidity;BME280_pressure;Samples;Min_cycle;Max_cycle;Signal;HPM_P1;HPM_P2
2021/08/21 00:00:19;;;;;;;4.43;3.78;;;17.60;71.80;;;;;;4985861;28;20038;-63
2021/08/21 00:02:44;;;;;;;7.75;4.28;;;17.60;71.80;;;;;;4984444;28;20043;-64
2021/08/21 00:05:10;;;;;;;5.72;4.15;;;17.50;71.80;;;;;;4981560;28;20118;-63
2021/08/21 00:07:36;;;;;;;5.38;4.20;;;17.50;71.90;;;;;;4984280;28;20042;-63
2021/08/21 00:10:05;;;;;;;6.35;4.68;;;17.50;72.00;;;;;;4985039;28;20516;-63
2021/08/21 00:12:31;;;;;;;6.57;4.63;;;17.40;72.30;;;;;;4979524;28;20149;-63
2021/08/21 00:14:56;;;;;;;6.45;4.35;;;17.50;72.30;;;;;;4984484;28;20469;-63
2021/08/21 00:17:22;;;;;;;5.60;4.13;;;17.50;72.30;;;;;;4998680;28;20734;-63
2021/08/21 00:19:48;;;;;;;5.40;4.25;;;17.40;72.10;;;;;;4983631;28;20645;-64
2021/08/21 00:22:13;;;;;;;6.57;4.45;;;17.40;72.10;;;;;;4986760;28;20078;-63
2021/08/21 00:24:41;;;;;;;5.13;4.40;;;17.40;72.20;;;;;;4987100;28;20057;-63
2021/08/21 00:27:06;;;;;;;6.13;4.85;;;17.30;73.20;;;;;;4986713;28;20038;-63
2021/08/21 00:29:32;;;;;;;7.40;4.68;;;17.30;73.30;;;;;;4989780;28;20100;-63
2021/08/21 00:31:58;;;;;;;5.47;4.80;;;17.30;72.30;;;;;;4987056;28;20065;-64
2021/08/21 00:34:24;;;;;;;5.80;4.95;;;17.30;72.30;;;;;;4984946;28;20048;-63
2021/08/21 00:36:50;;;;;;;5.45;4.63;;;17.20;72.30;;;;;;4988055;28;20053;-64
2021/08/21 00:39:15;;;;;;;6.68;5.20;;;17.20;72.30;;;;;;4987645;28;20046;-63
2021/08/21 00:41:41;;;;;;;6.53;4.97;;;17.20;72.20;;;;;;4987761;28;20097;-64
2021/08/21 00:44:08;;;;;;;4.88;4.30;;;17.10;72.30;;;;;;4988305;28;20124;-64
2021/08/21 00:46:52;;;;;;;6.18;4.57;;;17.10;72.30;;;;;;4986715;28;20121;-63
2021/08/21 00:49:18;;;;;;;5.28;4.72;;;17.10;72.40;;;;;;4988174;28;20104;-64
2021/08/21 00:51:44;;;;;;;5.70;4.82;;;17.00;72.50;;;;;;5000919;28;20553;-64
2021/08/21 00:54:09;;;;;;;5.97;4.70;;;17.00;72.60;;;;;;4987057;28;20034;-63
2021/08/21 00:56:35;;;;;;;6.22;4.93;;;17.00;72.80;;;;;;4986577;28;20035;-64
2021/08/21 00:59:02;;;;;;;5.82;4.70;;;16.90;72.80;;;;;;4988421;28;20034;-63
2021/08/21 01:01:28;;;;;;;5.10;4.60;;;16.90;73.10;;;;;;4972215;28;20027;-63
2021/08/21 01:03:53;;;;;;;5.80;5.22;;;16.80;73.10;;;;;;4979041;28;20034;-63
2021/08/21 01:06:19;;;;;;;5.55;4.95;;;16.80;73.20;;;;;;4985577;28;20026;-63
2021/08/21 01:08:45;;;;;;;5.05;4.45;;;16.70;73.30;;;;;;4984717;28;21724;-63
2021/08/21 01:11:10;;;;;;;8.20;4.85;;;16.70;73.60;;;;;;4977664;28;20084;-64
2021/08/21 01:13:37;;;;;;;6.28;4.82;;;16.60;73.70;;;;;;4987910;28;20026;-63
2021/08/21 01:16:03;;;;;;;6.88;5.00;;;16.60;73.90;;;;;;4987941;28;20181;-63
2021/08/21 01:18:29;;;;;;;6.07;4.82;;;16.50;74.00;;;;;;5000370;28;20391;-63
2021/08/21 01:20:55;;;;;;;5.03;4.53;;;16.50;74.30;;;;;;4987663;28;20083;-64
2021/08/21 01:23:21;;;;;;;13.90;4.75;;;16.40;74.40;;;;;;4984564;28;20062;-63
2021/08/21 01:25:47;;;;;;;7.47;4.70;;;16.30;74.60;;;;;;4987904;28;20042;-63
2021/08/21 01:28:12;;;;;;;7.72;5.57;;;16.30;74.80;;;;;;4985918;28;20460;-64
2021/08/21 01:30:38;;;;;;;6.93;5.20;;;16.30;75.10;;;;;;4984447;28;20641;-63
2021/08/21 01:33:04;;;;;;;5.18;4.65;;;16.20;75.20;;;;;;4984150;28;20049;-63
2021/08/21 01:35:29;;;;;;;7.75;5.10;;;16.20;75.30;;;;;;4986473;28;20080;-63
2021/08/21 01:37:55;;;;;;;7.55;4.93;;;16.20;75.30;;;;;;4987338;28;20034;-63
2021/08/21 01:40:21;;;;;;;5.57;4.60;;;16.20;75.40;;;;;;4986899;28;20580;-64
2021/08/21 01:42:46;;;;;;;5.15;4.55;;;16.10;75.30;;;;;;4985887;28;20043;-63
2021/08/21 01:45:13;;;;;;;5.53;4.65;;;16.10;75.30;;;;;;4986742;28;20034;-63
2021/08/21 01:47:44;;;;;;;6.93;5.10;;;16.10;75.40;;;;;;4986464;28;20633;-64
2021/08/21 01:50:17;;;;;;;6.07;5.05;;;16.10;75.50;;;;;;4987360;28;20092;-63
2021/08/21 01:52:50;;;;;;;5.88;4.78;;;16.10;75.50;;;;;;4982666;28;20046;-63
2021/08/21 01:55:16;;;;;;;5.55;4.95;;;16.00;75.50;;;;;;4987251;28;20034;-64
2021/08/21 01:57:46;;;;;;;6.68;4.93;;;16.00;75.60;;;;;;4984010;28;20604;-63
2021/08/21 02:00:13;;;;;;;5.50;4.53;;;16.00;75.80;;;;;;4987571;28;20065;-63
2021/08/21 02:02:38;;;;;;;5.32;4.82;;;15.90;75.90;;;;;;4985166;28;20030;-63
2021/08/21 02:05:05;;;;;;;6.75;4.78;;;15.90;76.10;;;;;;5000549;28;20031;-63
2021/08/21 02:07:31;;;;;;;5.20;4.43;;;15.90;76.10;;;;;;4985936;28;20038;-63
2021/08/21 02:09:57;;;;;;;7.38;4.65;;;15.90;76.10;;;;;;4985949;28;20181;-63
2021/08/21 02:12:23;;;;;;;6.90;4.70;;;15.80;76.20;;;;;;4982491;28;20038;-63
2021/08/21 02:14:49;;;;;;;8.50;4.97;;;15.80;77.20;;;;;;4986193;28;20110;-63
2021/08/21 02:17:15;;;;;;;5.78;5.18;;;15.80;76.40;;;;;;4988001;28;20061;-64
2021/08/21 02:19:40;;;;;;;5.15;4.65;;;15.80;76.60;;;;;;4984105;28;20034;-63
2021/08/21 02:22:06;;;;;;;5.95;4.53;;;15.70;76.60;;;;;;4985145;28;20039;-63
2021/08/21 02:24:34;;;;;;;5.40;4.90;;;15.70;76.70;;;;;;4983493;28;20046;-63
2021/08/21 02:27:01;;;;;;;7.15;5.22;;;15.70;76.80;;;;;;4986005;28;20037;-63
2021/08/21 02:29:28;;;;;;;6.05;4.82;;;15.70;77.00;;;;;;4985774;28;20183;-64
2021/08/21 02:31:55;;;;;;;7.38;5.15;;;15.70;77.10;;;;;;4984699;28;20046;-63
2021/08/21 02:34:22;;;;;;;4.85;4.43;;;15.70;77.00;;;;;;4982695;28;20057;-63
2021/08/21 02:36:48;;;;;;;4.93;4.43;;;15.70;77.00;;;;;;4999686;28;20125;-63
2021/08/21 02:39:14;;;;;;;5.57;4.50;;;15.60;77.00;;;;;;4987414;28;20113;-64
2021/08/21 02:41:40;;;;;;;5.78;5.10;;;15.70;77.10;;;;;;4985833;28;20080;-63
2021/08/21 02:44:05;;;;;;;8.05;5.15;;;15.70;77.00;;;;;;4984225;28;20570;-63
2021/08/21 02:46:31;;;;;;;7.05;5.03;;;15.70;76.80;;;;;;4986574;28;20125;-63
2021/08/21 02:48:57;;;;;;;5.93;5.38;;;15.70;76.60;;;;;;4983304;28;20069;-63
2021/08/21 02:51:23;;;;;;;7.20;5.25;;;15.70;76.60;;;;;;4985705;28;20074;-63
2021/08/21 02:53:48;;;;;;;5.40;4.90;;;15.70;76.60;;;;;;4982933;28;20450;-63
2021/08/21 02:56:14;;;;;;;6.93;5.22;;;15.70;76.60;;;;;;5001018;28;20077;-63
2021/08/21 02:58:40;;;;;;;6.10;5.10;;;15.60;76.60;;;;;;4983753;28;20046;-63
2021/08/21 03:01:05;;;;;;;7.35;5.63;;;15.60;76.80;;;;;;4982881;28;20031;-63
2021/08/21 03:03:31;;;;;;;6.70;5.60;;;15.60;76.80;;;;;;4982478;28;20498;-63
2021/08/21 03:05:57;;;;;;;5.68;5.05;;;15.50;77.00;;;;;;4984137;28;20121;-63
2021/08/21 03:08:22;;;;;;;7.75;5.25;;;15.50;77.00;;;;;;4985064;28;20140;-63
2021/08/21 03:10:48;;;;;;;5.90;4.97;;;15.40;76.90;;;;;;4982252;28;20038;-63
2021/08/21 03:13:14;;;;;;;6.72;5.05;;;15.40;77.00;;;;;;4984533;28;20030;-63
2021/08/21 03:15:39;;;;;;;6.28;5.68;;;15.40;77.10;;;;;;4985984;28;20034;-63
2021/08/21 03:18:05;;;;;;;6.18;5.50;;;15.40;77.20;;;;;;5000728;28;20038;-63
2021/08/21 03:20:30;;;;;;;7.68;5.20;;;15.30;77.20;;;;;;4983281;28;20046;-63
2021/08/21 03:22:57;;;;;;;7.10;5.85;;;15.30;77.30;;;;;;4984763;28;20041;-63
2021/08/21 03:25:22;;;;;;;8.48;5.85;;;15.30;77.50;;;;;;4986483;28;20413;-63
2021/08/21 03:27:48;;;;;;;6.45;5.57;;;15.30;77.50;;;;;;4986706;28;20043;-63
2021/08/21 03:30:14;;;;;;;6.05;5.45;;;15.20;77.50;;;;;;4997476;28;20043;-63
2021/08/21 03:32:39;;;;;;;6.60;5.50;;;15.20;77.60;;;;;;4983593;28;20034;-63
2021/08/21 03:35:06;;;;;;;6.72;5.70;;;15.20;77.60;;;;;;4984108;28;20648;-63
2021/08/21 03:37:31;;;;;;;6.10;5.47;;;15.20;77.70;;;;;;5000075;28;20131;-63
2021/08/21 03:39:57;;;;;;;6.68;5.22;;;15.20;77.70;;;;;;4999224;28;20135;-63
2021/08/21 03:42:23;;;;;;;8.98;5.35;;;15.20;77.80;;;;;;4983903;28;20038;-63
2021/08/21 03:44:48;;;;;;;7.70;4.82;;;15.20;77.90;;;;;;4999714;28;20042;-63
2021/08/21 03:47:14;;;;;;;5.63;5.10;;;15.20;77.90;;;;;;4985337;28;20045;-63
2021/08/21 03:49:40;;;;;;;5.50;4.70;;;15.20;77.90;;;;;;4984126;28;20088;-63
2021/08/21 03:52:05;;;;;;;6.43;5.10;;;15.20;77.90;;;;;;4984382;28;20085;-63
2021/08/21 03:54:31;;;;;;;5.95;4.85;;;15.30;77.90;;;;;;4985397;28;20045;-63
2021/08/21 03:56:57;;;;;;;4.93;4.53;;;15.30;77.60;;;;;;5001309;28;20586;-63
2021/08/21 03:59:22;;;;;;;5.90;4.40;;;15.40;77.30;;;;;;4988513;28;20031;-63
2021/08/21 04:01:48;;;;;;;6.25;5.00;;;15.40;77.10;;;;;;4985406;28;20038;-63
2021/08/21 04:04:14;;;;;;;8.27;4.95;;;15.50;76.80;;;;;;4987700;28;20034;-63
2021/08/21 04:06:41;;;;;;;5.15;4.63;;;15.50;76.40;;;;;;4987482;28;20030;-63
2021/08/21 04:09:07;;;;;;;6.72;4.72;;;15.50;76.30;;;;;;4990321;28;20034;-63
2021/08/21 04:11:33;;;;;;;7.43;4.82;;;15.50;76.20;;;;;;4999572;28;20038;-63
2021/08/21 04:13:59;;;;;;;5.50;5.00;;;15.50;76.20;;;;;;4989021;28;20065;-63
2021/08/21 04:16:24;;;;;;;5.60;4.75;;;15.50;76.10;;;;;;4988676;28;20031;-63
2021/08/21 04:18:50;;;;;;;7.90;5.05;;;15.40;76.00;;;;;;4988088;28;20026;-63
2021/08/21 04:21:16;;;;;;;5.20;4.68;;;15.40;76.10;;;;;;4989265;28;20037;-63
2021/08/21 04:23:41;;;;;;;5.90;5.07;;;15.30;76.10;;;;;;4987612;28;20030;-64
2021/08/21 04:26:07;;;;;;;7.00;5.50;;;15.30;76.30;;;;;;4984595;28;20092;-63
2021/08/21 04:28:34;;;;;;;5.15;4.65;;;15.30;76.40;;;;;;4987990;28;20042;-63
2021/08/21 04:31:00;;;;;;;7.95;5.00;;;15.30;76.30;;;;;;4986162;28;20049;-63
2021/08/21 04:33:26;;;;;;;6.68;5.40;;;15.20;76.50;;;;;;4988279;28;20434;-64
2021/08/21 04:35:52;;;;;;;6.97;5.10;;;15.20;76.60;;;;;;4987740;28;20405;-63
2021/08/21 04:38:18;;;;;;;6.18;5.57;;;15.20;76.90;;;;;;4988188;28;20038;-63
2021/08/21 04:40:46;;;;;;;6.75;4.97;;;15.20;77.20;;;;;;4986204;28;20061;-63
2021/08/21 04:43:13;;;;;;;6.45;5.18;;;15.10;77.30;;;;;;4988627;28;20027;-63
2021/08/21 04:45:39;;;;;;;5.60;4.80;;;15.10;77.40;;;;;;4986776;28;20081;-63
2021/08/21 04:48:04;;;;;;;6.90;5.05;;;15.20;77.60;;;;;;4987746;28;20038;-63
2021/08/21 04:50:30;;;;;;;6.32;5.38;;;15.20;77.70;;;;;;4987694;28;20510;-63
2021/08/21 04:52:56;;;;;;;5.50;4.55;;;15.20;77.70;;;;;;4987759;28;20042;-63
2021/08/21 04:55:22;;;;;;;8.07;5.40;;;15.20;77.60;;;;;;4988810;28;20049;-63
2021/08/21 04:57:49;;;;;;;5.70;4.78;;;15.30;77.60;;;;;;4987507;28;20387;-63
2021/08/21 05:00:15;;;;;;;6.30;5.15;;;15.30;77.40;;;;;;4987787;28;20046;-63
2021/08/21 05:02:40;;;;;;;5.38;4.88;;;15.30;77.60;;;;;;5002623;28;20038;-65
2021/08/21 05:05:06;;;;;;;6.28;5.15;;;15.40;77.70;;;;;;5001115;28;20080;-63
2021/08/21 05:07:32;;;;;;;6.97;5.57;;;15.40;77.70;;;;;;4986067;28;20038;-63
2021/08/21 05:09:57;;;;;;;8.07;5.25;;;15.50;77.50;;;;;;4988125;28;20041;-63
2021/08/21 05:12:23;;;;;;;7.63;5.32;;;15.50;77.50;;;;;;4983199;28;20137;-62
2021/08/21 05:14:49;;;;;;;6.40;5.70;;;15.60;77.50;;;;;;4985896;28;20113;-63
2021/08/21 05:17:14;;;;;;;5.90;4.95;;;15.60;77.30;;;;;;4987232;28;20069;-63
2021/08/21 05:24:47;;;;;;;8.57;6.13;;;15.80;77.40;;;;;;4986762;28;20042;-63
2021/08/21 05:27:13;;;;;;;6.88;5.90;;;15.80;77.70;;;;;;4988453;28;20116;-63
2021/08/21 05:29:39;;;;;;;6.28;5.40;;;15.80;78.00;;;;;;5002889;28;20058;-63
2021/08/21 05:32:05;;;;;;;7.68;6.43;;;15.90;77.90;;;;;;4984820;28;20034;-63
2021/08/21 05:34:31;;;;;;;8.98;6.45;;;15.90;78.00;;;;;;4987977;28;20510;-63
2021/08/21 05:36:57;;;;;;;7.90;6.10;;;15.90;78.20;;;;;;4987478;28;20031;-63
2021/08/21 05:39:22;;;;;;;8.55;6.40;;;15.90;78.50;;;;;;4988528;28;20034;-63
2021/08/21 05:41:48;;;;;;;7.88;6.35;;;15.90;78.70;;;;;;4988866;28;20042;-63
2021/08/21 05:44:14;;;;;;;7.35;6.15;;;16.00;78.90;;;;;;4986451;28;20031;-63
2021/08/21 05:46:39;;;;;;;10.65;6.38;;;16.10;78.90;;;;;;4981698;28;20121;-63
2021/08/21 05:49:05;;;;;;;7.32;6.25;;;16.20;79.00;;;;;;4984685;28;20030;-64
2021/08/21 05:51:31;;;;;;;7.38;6.13;;;16.20;79.10;;;;;;4985901;28;20529;-63
2021/08/21 05:53:57;;;;;;;7.82;6.80;;;16.30;79.10;;;;;;4984262;28;20030;-63
2021/08/21 05:56:23;;;;;;;11.05;7.53;;;16.40;79.10;;;;;;4986843;28;20731;-64
2021/08/21 05:58:49;;;;;;;12.60;7.50;;;16.50;79.30;;;;;;4988504;28;20034;-63
2021/08/21 06:01:15;;;;;;;9.43;7.13;;;16.60;79.20;;;;;;4987867;28;20553;-63
2021/08/21 06:03:41;;;;;;;9.98;8.02;;;16.70;79.30;;;;;;4980802;28;20054;-63
2021/08/21 06:06:11;;;;;;;10.35;8.00;;;16.80;79.40;;;;;;5002516;28;20030;-64
2021/08/21 06:08:37;;;;;;;9.30;7.82;;;16.80;79.60;;;;;;4981928;28;20414;-63
2021/08/21 06:11:02;;;;;;;9.30;7.55;;;16.90;79.40;;;;;;4980671;28;20507;-63
2021/08/21 06:13:28;;;;;;;9.88;7.20;;;17.10;79.20;;;;;;4986633;28;20034;-65
2021/08/21 06:15:54;;;;;;;7.85;6.65;;;17.10;79.30;;;;;;4987986;28;20045;-63
2021/08/21 06:18:19;;;;;;;9.10;7.22;;;17.10;79.20;;;;;;4984958;28;20030;-63
2021/08/21 06:20:45;;;;;;;8.43;7.43;;;17.20;79.10;;;;;;5001104;28;20084;-63
2021/08/21 06:23:10;;;;;;;9.82;7.57;;;17.20;78.90;;;;;;4985626;28;20608;-63
2021/08/21 06:25:36;;;;;;;8.43;7.57;;;17.30;78.80;;;;;;4984328;28;20030;-63
2021/08/21 06:28:02;;;;;;;7.82;6.68;;;17.40;78.60;;;;;;4985470;28;20060;-63
2021/08/21 06:30:27;;;;;;;11.27;7.82;;;17.40;78.60;;;;;;4983580;28;20042;-65
2021/08/21 06:32:53;;;;;;;7.88;7.07;;;17.50;78.40;;;;;;4986302;28;20579;-63
2021/08/21 06:35:19;;;;;;;15.00;7.43;;;17.50;78.20;;;;;;4969582;28;20043;-63
2021/08/21 06:37:44;;;;;;;8.82;7.13;;;17.60;78.20;;;;;;4969495;28;20572;-63
2021/08/21 06:40:10;;;;;;;11.23;8.27;;;17.60;78.10;;;;;;4963235;28;20027;-64
2021/08/21 06:42:36;;;;;;;8.77;7.88;;;17.70;78.00;;;;;;4987609;28;20034;-64
2021/08/21 06:45:02;;;;;;;10.02;8.43;;;17.70;78.00;;;;;;4976456;28;20053;-64
2021/08/21 06:47:27;;;;;;;8.90;8.00;;;17.80;77.90;;;;;;4973344;28;20137;-64
2021/08/21 06:49:53;;;;;;;8.82;7.93;;;17.80;77.90;;;;;;4973467;28;20450;-64
2021/08/21 06:52:19;;;;;;;10.23;8.13;;;17.80;77.90;;;;;;4972385;28;20540;-64
2021/08/21 06:54:44;;;;;;;9.27;8.30;;;17.80;78.20;;;;;;4977493;28;20121;-63
2021/08/21 06:57:10;;;;;;;10.18;8.00;;;17.80;78.10;;;;;;4979850;28;20047;-64
2021/08/21 06:59:35;;;;;;;7.80;7.00;;;17.80;78.10;;;;;;4980154;28;20030;-64
2021/08/21 07:02:03;;;;;;;9.95;7.88;;;17.90;78.20;;;;;;4976479;28;20069;-63
2021/08/21 07:04:28;;;;;;;9.00;7.03;;;17.90;78.30;;;;;;4979260;28;20034;-63
2021/08/21 07:06:54;;;;;;;8.93;7.72;;;17.90;78.40;;;;;;4974726;28;20046;-64
2021/08/21 07:09:20;;;;;;;8.30;7.45;;;18.00;78.40;;;;;;4966115;28;20507;-64
2021/08/21 07:11:45;;;;;;;8.32;7.32;;;18.10;78.40;;;;;;4987074;28;20035;-64
2021/08/21 07:14:11;;;;;;;8.15;7.20;;;18.20;78.40;;;;;;4992597;28;20034;-64
2021/08/21 07:16:36;;;;;;;8.57;7.07;;;18.30;78.10;;;;;;4971379;28;20042;-64
2021/08/21 07:19:02;;;;;;;8.77;7.20;;;18.40;77.90;;;;;;4978816;28;20085;-64
2021/08/21 07:21:28;;;;;;;9.65;7.53;;;18.40;77.60;;;;;;4975930;28;20031;-64
2021/08/21 07:23:54;;;;;;;7.50;6.40;;;18.50;77.30;;;;;;4978387;28;20034;-64
2021/08/21 07:26:20;;;;;;;7.88;7.07;;;18.60;77.20;;;;;;4976603;28;20035;-64
2021/08/21 07:28:46;;;;;;;8.13;7.32;;;18.70;77.10;;;;;;4991596;28;20046;-63
2021/08/21 07:31:11;;;;;;;9.63;7.45;;;18.80;76.80;;;;;;4986859;28;20684;-63
2021/08/21 07:33:37;;;;;;;7.43;6.70;;;18.90;76.60;;;;;;4970676;28;20046;-64
2021/08/21 07:36:03;;;;;;;8.23;7.22;;;18.90;76.40;;;;;;4971468;28;20034;-64
2021/08/21 07:38:28;;;;;;;8.07;7.28;;;19.00;76.10;;;;;;4972128;28;20450;-63
2021/08/21 07:40:54;;;;;;;9.60;7.60;;;19.10;76.10;;;;;;4978113;28;20034;-64
2021/08/21 07:43:20;;;;;;;9.25;7.40;;;19.10;76.50;;;;;;4975921;28;20026;-64
2021/08/21 07:45:46;;;;;;;9.30;7.80;;;19.20;76.50;;;;;;4980329;28;20081;-63
2021/08/21 07:48:14;;;;;;;8.27;7.43;;;19.20;76.30;;;;;;4974842;28;20483;-64
2021/08/21 07:50:39;;;;;;;9.23;8.00;;;19.30;76.40;;;;;;4976078;28;20139;-64
2021/08/21 07:53:05;;;;;;;10.02;8.60;;;19.30;76.30;;;;;;4976779;28;20114;-64
2021/08/21 07:55:31;;;;;;;9.07;8.18;;;19.30;76.10;;;;;;4974998;28;20034;-64
2021/08/21 07:57:56;;;;;;;10.93;8.25;;;19.40;76.10;;;;;;4977825;28;20026;-64
2021/08/21 08:00:22;;;;;;;10.23;8.60;;;19.40;76.00;;;;;;4978404;28;20039;-61
2021/08/21 08:02:47;;;;;;;9.00;7.82;;;19.40;76.00;;;;;;4994733;28;20545;-64
2021/08/21 08:05:13;;;;;;;19.42;8.20;;;19.50;75.90;;;;;;4979919;28;20572;-64
2021/08/21 08:07:39;;;;;;;10.07;8.13;;;19.60;76.00;;;;;;4980310;28;20114;-64
2021/08/21 08:10:05;;;;;;;10.40;8.32;;;19.60;76.00;;;;;;4979969;28;20498;-64
2021/08/21 08:12:31;;;;;;;13.40;8.30;;;19.70;76.00;;;;;;4975445;28;20046;-64
2021/08/21 08:14:57;;;;;;;9.98;7.72;;;19.80;75.90;;;;;;4993506;28;20031;-64
2021/08/21 08:17:24;;;;;;;10.68;8.02;;;19.90;75.60;;;;;;4990442;28;20130;-64
2021/08/21 08:19:51;;;;;;;9.23;7.88;;;20.00;75.40;;;;;;4992519;28;20026;-64
2021/08/21 08:22:16;;;;;;;8.90;7.53;;;20.00;75.40;;;;;;4975384;28;20046;-64
2021/08/21 08:24:42;;;;;;;8.02;7.22;;;20.10;75.50;;;;;;4977487;28;21060;-64
2021/08/21 08:27:08;;;;;;;8.50;7.57;;;20.20;75.50;;;;;;4980927;28;20034;-64
2021/08/21 08:29:33;;;;;;;9.18;8.18;;;20.30;75.50;;;;;;4980127;28;20442;-64
2021/08/21 08:31:59;;;;;;;9.18;7.88;;;20.40;75.30;;;;;;4978903;28;20026;-64
2021/08/21 08:34:25;;;;;;;8.88;7.88;;;20.40;75.20;;;;;;4981116;28;20122;-63
2021/08/21 08:36:50;;;;;;;20.27;8.00;;;20.60;75.10;;;;;;4985017;28;20039;-64
2021/08/21 08:39:16;;;;;;;8.95;7.63;;;20.70;75.10;;;;;;4981909;28;20379;-63
2021/08/21 08:41:42;;;;;;;7.57;6.88;;;20.70;74.90;;;;;;4982894;28;20043;-64
2021/08/21 08:44:11;;;;;;;9.45;7.90;;;20.90;74.70;;;;;;4985596;28;20038;-64
2021/08/21 08:46:38;;;;;;;8.70;7.78;;;21.00;74.00;;;;;;4986055;28;20632;-63
2021/08/21 08:49:05;;;;;;;8.93;7.95;;;21.10;74.70;;;;;;4985849;28;20580;-64
2021/08/21 08:51:32;;;;;;;9.52;7.85;;;21.20;74.00;;;;;;4986744;28;20031;-64
2021/08/21 08:53:58;;;;;;;8.98;7.28;;;21.30;73.80;;;;;;4985153;28;20036;-64
2021/08/21 08:56:24;;;;;;;10.00;7.75;;;21.30;73.70;;;;;;4981373;28;20038;-63
2021/08/21 08:58:49;;;;;;;12.70;7.60;;;21.40;73.30;;;;;;4987785;28;20043;-64
2021/08/21 09:01:15;;;;;;;9.07;7.88;;;21.60;73.20;;;;;;4987382;28;20035;-64
2021/08/21 09:03:41;;;;;;;9.35;7.50;;;21.60;72.80;;;;;;4988009;28;20093;-64
2021/08/21 09:06:11;;;;;;;13.70;8.27;;;21.70;72.70;;;;;;4988241;28;20042;-64
2021/08/21 09:08:37;;;;;;;9.13;7.13;;;21.80;71.90;;;;;;4988446;28;20441;-64
2021/08/21 09:11:19;;;;;;;9.15;7.45;;;21.90;71.80;;;;;;4982178;28;20027;-64
2021/08/21 09:13:45;;;;;;;11.02;7.60;;;22.00;71.30;;;;;;4985551;28;20513;-64
2021/08/21 09:16:10;;;;;;;8.07;7.28;;;22.00;71.50;;;;;;4988930;28;20034;-64
2021/08/21 09:18:37;;;;;;;9.27;6.57;;;22.10;71.80;;;;;;4986800;28;20060;-64
2021/08/21 09:21:04;;;;;;;12.65;8.15;;;22.20;71.80;;;;;;4987776;28;20049;-64
2021/08/21 09:23:37;;;;;;;8.40;6.68;;;22.30;71.30;;;;;;4982654;28;20366;-64
2021/08/21 09:26:19;;;;;;;7.78;6.35;;;22.40;71.40;;;;;;5000123;28;20041;-64
2021/08/21 09:28:48;;;;;;;7.18;6.47;;;22.50;71.10;;;;;;4981312;28;20042;-64
2021/08/21 09:31:16;;;;;;;8.32;6.50;;;22.60;71.40;;;;;;4985920;28;20034;-64
2021/08/21 09:33:49;;;;;;;8.98;6.22;;;22.70;71.30;;;;;;4986292;28;20068;-64
2021/08/21 09:36:43;;;;;;;9.48;6.40;;;22.80;70.90;;;;;;4987073;28;20161;-64
2021/08/21 09:39:11;;;;;;;9.10;6.35;;;22.90;70.70;;;;;;4985701;28;20041;-64
2021/08/21 09:42:04;;;;;;;7.20;5.78;;;23.10;70.90;;;;;;4985879;28;20472;-64
2021/08/21 09:44:38;;;;;;;7.65;5.78;;;23.20;70.30;;;;;;4985593;28;20152;-64
2021/08/21 09:47:23;;;;;;;6.38;5.78;;;23.40;69.70;;;;;;4986141;28;20391;-64
2021/08/21 09:49:50;;;;;;;6.93;5.90;;;23.50;69.50;;;;;;4984918;28;20505;-64
2021/08/21 09:52:17;;;;;;;7.85;6.22;;;23.60;69.60;;;;;;4982372;28;20458;-64
2021/08/21 09:55:06;;;;;;;8.00;5.88;;;23.70;68.10;;;;;;4978887;28;20038;-64
2021/08/21 09:57:32;;;;;;;8.20;5.70;;;23.80;66.90;;;;;;4985614;28;20030;-65
2021/08/21 10:00:02;;;;;;;6.57;5.05;;;23.90;68.10;;;;;;4984882;28;20801;-64
2021/08/21 10:02:32;;;;;;;6.15;5.20;;;24.10;67.60;;;;;;4985030;28;20507;-64
2021/08/21 10:04:59;;;;;;;7.53;5.03;;;24.20;66.60;;;;;;4984364;28;20053;-64
2021/08/21 10:07:35;;;;;;;5.10;4.60;;;24.40;66.20;;;;;;4985566;28;20112;-64
2021/08/21 10:10:02;;;;;;;6.35;5.10;;;24.40;65.80;;;;;;4990157;28;20026;-64
2021/08/21 10:12:28;;;;;;;5.20;4.70;;;24.50;65.30;;;;;;4979093;28;20037;-65
2021/08/21 10:14:56;;;;;;;4.60;4.20;;;24.70;64.80;;;;;;4994715;28;20081;-64
2021/08/21 10:17:21;;;;;;;5.75;5.15;;;24.80;64.50;;;;;;4985405;28;20058;-65
2021/08/21 10:19:48;;;;;;;6.45;5.20;;;24.90;63.60;;;;;;4982340;28;20069;-64
2021/08/21 10:22:18;;;;;;;4.70;4.30;;;24.90;63.70;;;;;;4981398;28;20042;-65
2021/08/21 10:24:47;;;;;;;5.20;4.45;;;25.00;63.60;;;;;;4984407;28;20864;-65
2021/08/21 10:27:37;;;;;;;5.93;4.22;;;25.10;63.60;;;;;;4977566;28;20034;-65
2021/08/21 10:30:09;;;;;;;5.80;4.45;;;25.20;61.80;;;;;;4986659;28;20053;-64
2021/08/21 10:32:40;;;;;;;6.30;3.97;;;25.40;62.10;;;;;;4986235;28;20512;-64
2021/08/21 10:35:06;;;;;;;5.20;4.55;;;25.40;62.40;;;;;;4982516;28;20404;-64
2021/08/21 10:37:38;;;;;;;4.75;4.25;;;25.50;62.20;;;;;;4984599;28;20030;-65
2021/08/21 10:40:28;;;;;;;5.10;4.70;;;25.60;61.60;;;;;;4997234;28;20937;-65
2021/08/21 10:42:56;;;;;;;5.10;4.60;;;25.70;60.20;;;;;;4982221;28;20056;-64
2021/08/21 10:45:41;;;;;;;4.82;4.35;;;25.80;61.00;;;;;;4979506;28;20105;-64
2021/08/21 10:48:23;;;;;;;5.07;4.57;;;25.90;59.80;;;;;;4985476;28;20092;-64
2021/08/21 10:50:49;;;;;;;5.05;4.55;;;26.00;60.50;;;;;;4983976;28;20030;-65
2021/08/21 10:53:35;;;;;;;5.65;4.80;;;26.00;59.60;;;;;;4981433;28;20030;-64
2021/08/21 10:56:03;;;;;;;5.38;4.55;;;26.10;58.20;;;;;;4983887;28;20074;-64
2021/08/21 10:58:31;;;;;;;4.90;4.50;;;26.20;59.80;;;;;;4985090;28;20516;-65
2021/08/21 11:01:04;;;;;;;5.07;4.38;;;26.20;59.50;;;;;;4975458;28;20089;-65
2021/08/21 11:03:30;;;;;;;4.53;4.13;;;26.30;59.10;;;;;;4985885;28;20456;-65
2021/08/21 11:06:08;;;;;;;4.85;4.35;;;26.30;59.70;;;;;;4986555;28;20034;-65
2021/08/21 11:08:55;;;;;;;4.28;3.88;;;26.40;58.60;;;;;;4982860;28;20368;-64
2021/08/21 11:14:28;;;;;;;4.30;3.90;;;26.60;57.90;;;;;;4983888;28;20034;-65
2021/08/21 11:17:00;;;;;;;7.40;3.92;;;26.70;57.00;;;;;;4981687;28;20414;-65
2021/08/21 11:19:45;;;;;;;4.57;4.18;;;26.70;56.70;;;;;;4983213;28;20030;-64
2021/08/21 11:22:12;;;;;;;7.30;4.70;;;26.80;57.00;;;;;;4983922;28;20508;-64
2021/08/21 11:25:00;;;;;;;7.47;4.57;;;26.80;57.70;;;;;;4982193;28;20690;-64
2021/08/21 11:27:27;;;;;;;4.43;4.03;;;26.90;58.20;;;;;;4982401;28;20034;-65
2021/08/21 11:30:12;;;;;;;4.30;3.90;;;26.90;56.90;;;;;;4983149;28;20046;-66
2021/08/21 11:32:57;;;;;;;5.90;3.90;;;27.00;57.00;;;;;;4981769;28;20030;-65
2021/08/21 11:35:37;;;;;;;6.45;4.03;;;27.10;56.70;;;;;;4984591;28;20030;-65
2021/08/21 11:38:17;;;;;;;4.55;4.15;;;27.10;56.80;;;;;;4983904;28;20065;-64
2021/08/21 11:40:44;;;;;;;4.20;3.80;;;27.10;55.80;;;;;;4985261;28;20057;-64
2021/08/21 11:43:12;;;;;;;4.55;4.15;;;27.20;56.30;;;;;;4984563;28;20053;-65
2021/08/21 11:45:39;;;;;;;8.65;4.03;;;27.20;55.80;;;;;;4985333;28;20066;-64
2021/08/21 11:48:05;;;;;;;4.28;3.90;;;27.20;56.00;;;;;;4981848;28;20046;-64
2021/08/21 11:50:35;;;;;;;4.55;4.10;;;27.30;55.80;;;;;;4997639;28;20473;-64
2021/08/21 11:53:06;;;;;;;5.20;3.92;;;27.40;55.50;;;;;;4981944;28;20525;-64
2021/08/21 11:55:34;;;;;;;4.53;4.13;;;27.30;54.90;;;;;;4981683;28;20760;-64
2021/08/21 11:58:00;;;;;;;4.47;3.67;;;27.40;55.30;;;;;;4982185;28;20038;-64
2021/08/21 12:00:28;;;;;;;4.20;3.80;;;27.40;55.10;;;;;;4984352;28;20034;-65
2021/08/21 12:03:03;;;;;;;4.18;3.55;;;27.50;54.80;;;;;;4974501;28;20035;-65
2021/08/21 12:05:43;;;;;;;4.68;3.75;;;27.50;54.70;;;;;;4983916;28;20030;-65
2021/08/21 12:08:21;;;;;;;4.20;3.80;;;27.60;54.00;;;;;;4999324;28;20039;-65
2021/08/21 12:10:58;;;;;;;4.60;4.15;;;27.70;54.00;;;;;;4980101;28;20066;-65
2021/08/21 12:13:27;;;;;;;5.43;3.22;;;27.70;54.20;;;;;;4983041;28;20054;-65
2021/08/21 12:15:54;;;;;;;3.65;3.33;;;27.80;54.00;;;;;;4975558;28;20042;-65
2021/08/21 12:18:21;;;;;;;3.42;3.13;;;27.80;53.60;;;;;;4988964;28;20037;-65
2021/08/21 12:20:48;;;;;;;4.40;3.72;;;27.90;53.30;;;;;;4987048;28;20035;-64
2021/08/21 12:23:14;;;;;;;3.95;3.63;;;27.90;52.40;;;;;;4985158;28;20031;-64
2021/08/21 12:25:44;;;;;;;4.20;3.80;;;27.90;52.10;;;;;;4984769;28;20062;-65
2021/08/21 12:28:14;;;;;;;3.35;3.13;;;27.90;52.10;;;;;;4986321;28;20509;-64
2021/08/21 12:30:51;;;;;;;3.88;3.50;;;28.00;52.40;;;;;;4983823;28;20054;-65
2021/08/21 12:33:17;;;;;;;5.22;3.53;;;28.00;52.50;;;;;;4983312;28;20038;-64
2021/08/21 12:35:42;;;;;;;4.10;3.72;;;28.00;52.80;;;;;;4987367;28;20137;-65
2021/08/21 12:38:08;;;;;;;3.95;3.63;;;28.00;53.00;;;;;;4999317;28;20035;-65
2021/08/21 12:40:34;;;;;;;7.30;3.20;;;28.00;53.00;;;;;;4987830;28;20122;-65
2021/08/21 12:43:05;;;;;;;4.60;3.60;;;28.10;53.60;;;;;;4981115;28;20403;-65
2021/08/21 12:45:40;;;;;;;4.53;3.78;;;28.10;53.20;;;;;;4995295;28;20795;-65
2021/08/21 12:48:07;;;;;;;3.90;3.50;;;28.20;53.30;;;;;;4984199;28;20069;-65
2021/08/21 12:50:40;;;;;;;4.00;3.70;;;28.20;53.10;;;;;;4985578;28;20038;-65
2021/08/21 12:53:06;;;;;;;5.38;3.65;;;28.30;53.00;;;;;;4987325;28;20034;-64
2021/08/21 12:55:33;;;;;;;6.72;3.70;;;28.40;53.10;;;;;;4982489;28;20069;-65